sensor_id;sensor_type;location;lat;lon;timestamp;P1;durP1;ratioP1;P2;durP2;ratioP2
80183;SDS011;69682;52.138;5.440;2024-02-16T00:00:08;3.33;;;1.63;;
80183;SDS011;69682;52.138;5.440;2024-02-16T00:02:38;3.83;;;2.63;;
80183;SDS011;69682;52.138;5.440;2024-02-16T00:05:05;4.28;;;2.05;;
80183;SDS011;69682;52.138;5.440;2024-02-16T00:07:33;4.70;;;2.53;;
80183;SDS011;69682;52.138;5.440;2024-02-16T00:10:00;3.60;;;2.20;;
80183;SDS011;69682;52.138;5.440;2024-02-16T00:12:27;4.18;;;2.40;;
80183;SDS011;69682;52.138;5.440;2024-02-16T00:14:54;4.55;;;2.25;;
80183;SDS011;69682;52.138;5.440;2024-02-16T00:17:20;3.67;;;2.13;;
80183;SDS011;69682;52.138;5.440;2024-02-16T00:19:48;3.55;;;1.65;;
80183;SDS011;69682;52.138;5.440;2024-02-16T00:22:29;2.78;;;1.70;;
80183;SDS011;69682;52.138;5.440;2024-02-16T00:24:56;4.28;;;2.22;;
80183;SDS011;69682;52.138;5.440;2024-02-16T00:27:22;4.70;;;2.25;;
80183;SDS011;69682;52.138;5.440;2024-02-16T00:29:49;5.97;;;2.40;;
80183;SDS011;69682;52.138;5.440;2024-02-16T00:32:16;6.03;;;2.47;;
80183;SDS011;69682;52.138;5.440;2024-02-16T00:34:43;4.55;;;2.00;;
80183;SDS011;69682;52.138;5.440;2024-02-16T00:37:09;3.40;;;1.98;;
80183;SDS011;69682;52.138;5.440;2024-02-16T00:39:38;3.88;;;2.78;;
80183;SDS011;69682;52.138;5.440;2024-02-16T00:42:08;3.55;;;2.22;;
80183;SDS011;69682;52.138;5.440;2024-02-16T00:44:38;5.30;;;2.05;;
80183;SDS011;69682;52.138;5.440;2024-02-16T00:47:05;5.68;;;2.63;;
80183;SDS011;69682;52.138;5.440;2024-02-16T00:49:32;3.33;;;2.00;;
80183;SDS011;69682;52.138;5.440;2024-02-16T00:51:59;6.70;;;2.95;;
80183;SDS011;69682;52.138;5.440;2024-02-16T00:54:26;3.90;;;1.92;;
80183;SDS011;69682;52.138;5.440;2024-02-16T00:56:53;3.28;;;1.92;;
80183;SDS011;69682;52.138;5.440;2024-02-16T01:01:47;4.25;;;1.95;;
80183;SDS011;69682;52.138;5.440;2024-02-16T01:04:14;4.03;;;1.70;;
80183;SDS011;69682;52.138;5.440;2024-02-16T01:06:41;5.40;;;2.33;;
80183;SDS011;69682;52.138;5.440;2024-02-16T01:09:07;5.90;;;2.08;;
80183;SDS011;69682;52.138;5.440;2024-02-16T01:11:34;3.58;;;2.25;;
80183;SDS011;69682;52.138;5.440;2024-02-16T01:14:01;5.10;;;2.30;;
80183;SDS011;69682;52.138;5.440;2024-02-16T01:16:28;3.08;;;2.08;;
80183;SDS011;69682;52.138;5.440;2024-02-16T01:18:55;3.70;;;2.00;;
80183;SDS011;69682;52.138;5.440;2024-02-16T01:21:23;6.28;;;2.30;;
80183;SDS011;69682;52.138;5.440;2024-02-16T01:23:49;5.28;;;2.13;;
80183;SDS011;69682;52.138;5.440;2024-02-16T01:26:16;6.43;;;2.15;;
80183;SDS011;69682;52.138;5.440;2024-02-16T01:28:42;3.90;;;1.95;;
80183;SDS011;69682;52.138;5.440;2024-02-16T01:31:09;3.78;;;2.00;;
80183;SDS011;69682;52.138;5.440;2024-02-16T01:33:36;3.80;;;1.98;;
80183;SDS011;69682;52.138;5.440;2024-02-16T01:36:03;6.88;;;2.38;;
80183;SDS011;69682;52.138;5.440;2024-02-16T01:38:30;4.15;;;2.20;;
80183;SDS011;69682;52.138;5.440;2024-02-16T01:40:59;3.15;;;1.98;;
80183;SDS011;69682;52.138;5.440;2024-02-16T01:43:25;4.50;;;2.20;;
80183;SDS011;69682;52.138;5.440;2024-02-16T01:45:52;3.38;;;1.88;;
80183;SDS011;69682;52.138;5.440;2024-02-16T01:48:19;6.22;;;2.53;;
80183;SDS011;69682;52.138;5.440;2024-02-16T01:50:47;4.30;;;2.30;;
80183;SDS011;69682;52.138;5.440;2024-02-16T01:53:15;10.23;;;3.00;;
80183;SDS011;69682;52.138;5.440;2024-02-16T01:55:45;4.03;;;2.30;;
80183;SDS011;69682;52.138;5.440;2024-02-16T01:58:12;3.03;;;2.22;;
80183;SDS011;69682;52.138;5.440;2024-02-16T02:00:40;3.25;;;2.20;;
80183;SDS011;69682;52.138;5.440;2024-02-16T02:03:12;2.92;;;2.38;;
80183;SDS011;69682;52.138;5.440;2024-02-16T02:05:45;6.70;;;2.05;;
80183;SDS011;69682;52.138;5.440;2024-02-16T02:08:13;4.45;;;2.03;;
80183;SDS011;69682;52.138;5.440;2024-02-16T02:10:43;4.15;;;2.30;;
80183;SDS011;69682;52.138;5.440;2024-02-16T02:13:09;5.78;;;2.55;;
80183;SDS011;69682;52.138;5.440;2024-02-16T02:15:36;6.00;;;2.47;;
80183;SDS011;69682;52.138;5.440;2024-02-16T02:20:31;5.13;;;2.45;;
80183;SDS011;69682;52.138;5.440;2024-02-16T02:22:58;5.22;;;2.28;;
80183;SDS011;69682;52.138;5.440;2024-02-16T02:25:25;3.50;;;2.35;;
80183;SDS011;69682;52.138;5.440;2024-02-16T02:27:55;4.20;;;2.50;;
80183;SDS011;69682;52.138;5.440;2024-02-16T02:30:22;4.32;;;2.30;;
80183;SDS011;69682;52.138;5.440;2024-02-16T02:32:51;3.25;;;2.20;;
80183;SDS011;69682;52.138;5.440;2024-02-16T02:35:18;3.85;;;2.10;;
80183;SDS011;69682;52.138;5.440;2024-02-16T02:37:45;4.55;;;2.13;;
80183;SDS011;69682;52.138;5.440;2024-02-16T02:40:12;3.78;;;2.85;;
80183;SDS011;69682;52.138;5.440;2024-02-16T02:42:38;4.07;;;1.85;;
80183;SDS011;69682;52.138;5.440;2024-02-16T02:45:05;4.97;;;2.00;;
80183;SDS011;69682;52.138;5.440;2024-02-16T02:47:32;3.58;;;1.90;;
80183;SDS011;69682;52.138;5.440;2024-02-16T02:49:59;3.92;;;2.10;;
80183;SDS011;69682;52.138;5.440;2024-02-16T02:52:26;3.97;;;1.95;;
80183;SDS011;69682;52.138;5.440;2024-02-16T02:54:52;3.70;;;2.45;;
80183;SDS011;69682;52.138;5.440;2024-02-16T02:57:19;3.22;;;2.28;;
80183;SDS011;69682;52.138;5.440;2024-02-16T02:59:45;6.78;;;2.40;;
80183;SDS011;69682;52.138;5.440;2024-02-16T03:02:12;4.95;;;2.28;;
80183;SDS011;69682;52.138;5.440;2024-02-16T03:04:38;4.88;;;2.13;;
80183;SDS011;69682;52.138;5.440;2024-02-16T03:07:05;4.30;;;2.33;;
80183;SDS011;69682;52.138;5.440;2024-02-16T03:09:34;3.78;;;2.00;;
80183;SDS011;69682;52.138;5.440;2024-02-16T03:12:01;4.18;;;1.98;;
80183;SDS011;69682;52.138;5.440;2024-02-16T03:14:28;5.20;;;2.20;;
80183;SDS011;69682;52.138;5.440;2024-02-16T03:16:54;2.45;;;1.83;;
80183;SDS011;69682;52.138;5.440;2024-02-16T03:19:21;3.45;;;2.50;;
80183;SDS011;69682;52.138;5.440;2024-02-16T03:21:48;2.67;;;2.10;;
80183;SDS011;69682;52.138;5.440;2024-02-16T03:24:15;3.67;;;2.22;;
80183;SDS011;69682;52.138;5.440;2024-02-16T03:26:41;3.72;;;2.17;;
80183;SDS011;69682;52.138;5.440;2024-02-16T03:29:08;4.55;;;2.22;;
80183;SDS011;69682;52.138;5.440;2024-02-16T03:31:34;6.40;;;2.50;;
80183;SDS011;69682;52.138;5.440;2024-02-16T03:34:02;3.55;;;2.08;;
80183;SDS011;69682;52.138;5.440;2024-02-16T03:36:28;4.43;;;2.30;;
80183;SDS011;69682;52.138;5.440;2024-02-16T03:41:23;4.45;;;1.98;;
80183;SDS011;69682;52.138;5.440;2024-02-16T03:43:50;4.00;;;2.58;;
80183;SDS011;69682;52.138;5.440;2024-02-16T03:46:18;3.58;;;1.88;;
80183;SDS011;69682;52.138;5.440;2024-02-16T03:48:44;2.95;;;2.30;;
80183;SDS011;69682;52.138;5.440;2024-02-16T03:51:21;2.80;;;2.15;;
80183;SDS011;69682;52.138;5.440;2024-02-16T03:53:48;4.47;;;2.35;;
80183;SDS011;69682;52.138;5.440;2024-02-16T03:56:19;3.97;;;2.40;;
80183;SDS011;69682;52.138;5.440;2024-02-16T03:58:45;4.70;;;2.42;;
80183;SDS011;69682;52.138;5.440;2024-02-16T04:01:12;4.35;;;2.17;;
80183;SDS011;69682;52.138;5.440;2024-02-16T04:03:39;2.42;;;1.77;;
80183;SDS011;69682;52.138;5.440;2024-02-16T04:06:07;6.40;;;2.45;;
80183;SDS011;69682;52.138;5.440;2024-02-16T04:08:34;4.45;;;2.17;;
80183;SDS011;69682;52.138;5.440;2024-02-16T04:11:00;3.95;;;2.15;;
80183;SDS011;69682;52.138;5.440;2024-02-16T04:13:27;4.93;;;2.25;;
80183;SDS011;69682;52.138;5.440;2024-02-16T04:15:54;4.72;;;2.17;;
80183;SDS011;69682;52.138;5.440;2024-02-16T04:18:21;4.45;;;2.05;;
80183;SDS011;69682;52.138;5.440;2024-02-16T04:20:48;4.72;;;2.25;;
80183;SDS011;69682;52.138;5.440;2024-02-16T04:23:14;5.63;;;2.03;;
80183;SDS011;69682;52.138;5.440;2024-02-16T04:25:41;5.63;;;2.58;;
80183;SDS011;69682;52.138;5.440;2024-02-16T04:28:07;3.70;;;2.13;;
80183;SDS011;69682;52.138;5.440;2024-02-16T04:30:34;5.65;;;2.80;;
80183;SDS011;69682;52.138;5.440;2024-02-16T04:33:01;6.78;;;2.42;;
80183;SDS011;69682;52.138;5.440;2024-02-16T04:35:28;4.10;;;2.08;;
80183;SDS011;69682;52.138;5.440;2024-02-16T04:37:54;3.55;;;1.95;;
80183;SDS011;69682;52.138;5.440;2024-02-16T04:40:21;5.68;;;2.88;;
80183;SDS011;69682;52.138;5.440;2024-02-16T04:42:48;5.15;;;2.20;;
80183;SDS011;69682;52.138;5.440;2024-02-16T04:45:17;3.65;;;2.00;;
80183;SDS011;69682;52.138;5.440;2024-02-16T04:47:44;3.75;;;2.53;;
80183;SDS011;69682;52.138;5.440;2024-02-16T04:50:11;2.85;;;1.95;;
80183;SDS011;69682;52.138;5.440;2024-02-16T04:52:38;4.28;;;2.97;;
80183;SDS011;69682;52.138;5.440;2024-02-16T04:55:07;4.47;;;2.03;;
80183;SDS011;69682;52.138;5.440;2024-02-16T04:57:40;3.47;;;2.20;;
80183;SDS011;69682;52.138;5.440;2024-02-16T05:00:10;5.18;;;2.20;;
80183;SDS011;69682;52.138;5.440;2024-02-16T05:02:37;5.28;;;2.38;;
80183;SDS011;69682;52.138;5.440;2024-02-16T05:05:04;3.92;;;1.98;;
80183;SDS011;69682;52.138;5.440;2024-02-16T05:07:31;4.68;;;2.90;;
80183;SDS011;69682;52.138;5.440;2024-02-16T05:09:58;5.55;;;2.28;;
80183;SDS011;69682;52.138;5.440;2024-02-16T05:12:25;5.25;;;2.13;;
80183;SDS011;69682;52.138;5.440;2024-02-16T05:14:53;3.25;;;2.15;;
80183;SDS011;69682;52.138;5.440;2024-02-16T05:17:20;4.43;;;2.97;;
80183;SDS011;69682;52.138;5.440;2024-02-16T05:19:49;4.70;;;2.50;;
80183;SDS011;69682;52.138;5.440;2024-02-16T05:22:16;2.70;;;2.30;;
80183;SDS011;69682;52.138;5.440;2024-02-16T05:27:11;4.68;;;2.25;;
80183;SDS011;69682;52.138;5.440;2024-02-16T05:29:42;4.32;;;2.33;;
80183;SDS011;69682;52.138;5.440;2024-02-16T05:32:08;3.42;;;2.03;;
80183;SDS011;69682;52.138;5.440;2024-02-16T05:34:37;3.53;;;2.17;;
80183;SDS011;69682;52.138;5.440;2024-02-16T05:37:06;5.63;;;2.40;;
80183;SDS011;69682;52.138;5.440;2024-02-16T05:39:33;4.03;;;2.42;;
80183;SDS011;69682;52.138;5.440;2024-02-16T05:42:02;2.97;;;1.75;;
80183;SDS011;69682;52.138;5.440;2024-02-16T05:44:29;5.47;;;2.42;;
80183;SDS011;69682;52.138;5.440;2024-02-16T05:46:56;4.05;;;3.10;;
80183;SDS011;69682;52.138;5.440;2024-02-16T05:49:23;5.60;;;2.15;;
80183;SDS011;69682;52.138;5.440;2024-02-16T05:51:51;3.08;;;2.13;;
80183;SDS011;69682;52.138;5.440;2024-02-16T05:54:44;4.80;;;2.40;;
80183;SDS011;69682;52.138;5.440;2024-02-16T05:57:12;3.63;;;2.22;;
80183;SDS011;69682;52.138;5.440;2024-02-16T05:59:39;2.95;;;2.00;;
80183;SDS011;69682;52.138;5.440;2024-02-16T06:02:05;4.13;;;3.22;;
80183;SDS011;69682;52.138;5.440;2024-02-16T06:04:37;6.80;;;2.53;;
80183;SDS011;69682;52.138;5.440;2024-02-16T06:07:04;5.45;;;2.90;;
80183;SDS011;69682;52.138;5.440;2024-02-16T06:09:31;2.50;;;2.03;;
80183;SDS011;69682;52.138;5.440;2024-02-16T06:12:02;4.28;;;2.10;;
80183;SDS011;69682;52.138;5.440;2024-02-16T06:14:31;3.85;;;2.90;;
80183;SDS011;69682;52.138;5.440;2024-02-16T06:16:58;5.57;;;2.40;;
80183;SDS011;69682;52.138;5.440;2024-02-16T06:19:25;4.82;;;2.25;;
80183;SDS011;69682;52.138;5.440;2024-02-16T06:21:53;3.78;;;2.38;;
80183;SDS011;69682;52.138;5.440;2024-02-16T06:24:23;2.85;;;2.13;;
80183;SDS011;69682;52.138;5.440;2024-02-16T06:26:50;5.78;;;2.78;;
80183;SDS011;69682;52.138;5.440;2024-02-16T06:29:23;5.25;;;2.65;;
80183;SDS011;69682;52.138;5.440;2024-02-16T06:31:50;6.65;;;2.75;;
80183;SDS011;69682;52.138;5.440;2024-02-16T06:34:17;4.55;;;2.45;;
80183;SDS011;69682;52.138;5.440;2024-02-16T06:36:44;6.40;;;3.08;;
80183;SDS011;69682;52.138;5.440;2024-02-16T06:39:11;5.68;;;2.38;;
80183;SDS011;69682;52.138;5.440;2024-02-16T06:41:43;4.60;;;2.75;;
80183;SDS011;69682;52.138;5.440;2024-02-16T06:44:12;3.20;;;2.40;;
80183;SDS011;69682;52.138;5.440;2024-02-16T06:46:39;3.38;;;2.13;;
80183;SDS011;69682;52.138;5.440;2024-02-16T06:49:06;2.53;;;1.95;;
80183;SDS011;69682;52.138;5.440;2024-02-16T06:51:33;3.95;;;2.53;;
80183;SDS011;69682;52.138;5.440;2024-02-16T06:53:59;6.32;;;2.78;;
80183;SDS011;69682;52.138;5.440;2024-02-16T06:56:27;6.07;;;2.42;;
80183;SDS011;69682;52.138;5.440;2024-02-16T06:58:53;4.63;;;2.63;;
80183;SDS011;69682;52.138;5.440;2024-02-16T07:01:20;7.70;;;2.60;;
80183;SDS011;69682;52.138;5.440;2024-02-16T07:03:46;7.25;;;2.55;;
80183;SDS011;69682;52.138;5.440;2024-02-16T07:06:13;3.00;;;2.35;;
80183;SDS011;69682;52.138;5.440;2024-02-16T07:08:40;4.55;;;2.33;;
80183;SDS011;69682;52.138;5.440;2024-02-16T07:11:07;4.93;;;2.80;;
80183;SDS011;69682;52.138;5.440;2024-02-16T07:13:34;4.50;;;2.33;;
80183;SDS011;69682;52.138;5.440;2024-02-16T07:16:02;6.10;;;2.47;;
80183;SDS011;69682;52.138;5.440;2024-02-16T07:18:30;6.30;;;3.17;;
80183;SDS011;69682;52.138;5.440;2024-02-16T07:20:57;3.83;;;2.40;;
80183;SDS011;69682;52.138;5.440;2024-02-16T07:23:25;5.57;;;3.08;;
80183;SDS011;69682;52.138;5.440;2024-02-16T07:25:52;3.78;;;2.47;;
80183;SDS011;69682;52.138;5.440;2024-02-16T07:28:23;4.03;;;2.15;;
80183;SDS011;69682;52.138;5.440;2024-02-16T07:30:50;7.00;;;2.22;;
80183;SDS011;69682;52.138;5.440;2024-02-16T07:33:17;4.22;;;2.40;;
80183;SDS011;69682;52.138;5.440;2024-02-16T07:35:44;4.80;;;2.63;;
80183;SDS011;69682;52.138;5.440;2024-02-16T07:38:10;5.57;;;2.30;;
80183;SDS011;69682;52.138;5.440;2024-02-16T07:40:37;3.65;;;2.40;;
80183;SDS011;69682;52.138;5.440;2024-02-16T07:43:03;4.82;;;2.47;;
80183;SDS011;69682;52.138;5.440;2024-02-16T07:45:31;4.07;;;2.30;;
80183;SDS011;69682;52.138;5.440;2024-02-16T07:47:58;4.22;;;2.28;;
80183;SDS011;69682;52.138;5.440;2024-02-16T07:50:24;5.50;;;3.38;;
80183;SDS011;69682;52.138;5.440;2024-02-16T07:52:51;3.45;;;2.20;;
80183;SDS011;69682;52.138;5.440;2024-02-16T07:55:18;5.85;;;2.42;;
80183;SDS011;69682;52.138;5.440;2024-02-16T07:57:44;7.90;;;2.58;;
80183;SDS011;69682;52.138;5.440;2024-02-16T08:00:11;5.35;;;2.55;;
80183;SDS011;69682;52.138;5.440;2024-02-16T08:02:41;4.93;;;2.58;;
80183;SDS011;69682;52.138;5.440;2024-02-16T08:05:12;5.13;;;2.00;;
80183;SDS011;69682;52.138;5.440;2024-02-16T08:07:40;5.38;;;2.63;;
80183;SDS011;69682;52.138;5.440;2024-02-16T08:10:10;4.15;;;2.22;;
80183;SDS011;69682;52.138;5.440;2024-02-16T08:12:38;4.00;;;2.65;;
80183;SDS011;69682;52.138;5.440;2024-02-16T08:15:14;3.45;;;2.75;;
80183;SDS011;69682;52.138;5.440;2024-02-16T08:17:40;3.67;;;2.00;;
80183;SDS011;69682;52.138;5.440;2024-02-16T08:20:07;3.67;;;2.38;;
80183;SDS011;69682;52.138;5.440;2024-02-16T08:22:38;4.60;;;1.88;;
80183;SDS011;69682;52.138;5.440;2024-02-16T08:25:04;4.88;;;2.72;;
80183;SDS011;69682;52.138;5.440;2024-02-16T08:27:32;6.82;;;3.03;;
80183;SDS011;69682;52.138;5.440;2024-02-16T08:29:59;5.05;;;2.85;;
80183;SDS011;69682;52.138;5.440;2024-02-16T08:32:28;3.75;;;2.30;;
80183;SDS011;69682;52.138;5.440;2024-02-16T08:34:54;4.53;;;2.45;;
80183;SDS011;69682;52.138;5.440;2024-02-16T08:37:22;4.45;;;2.30;;
80183;SDS011;69682;52.138;5.440;2024-02-16T08:39:49;6.45;;;2.90;;
80183;SDS011;69682;52.138;5.440;2024-02-16T08:42:15;4.93;;;2.42;;
80183;SDS011;69682;52.138;5.440;2024-02-16T08:44:42;1.88;;;1.42;;
80183;SDS011;69682;52.138;5.440;2024-02-16T08:47:09;6.68;;;2.45;;
80183;SDS011;69682;52.138;5.440;2024-02-16T08:49:35;6.55;;;3.28;;
80183;SDS011;69682;52.138;5.440;2024-02-16T08:52:03;5.45;;;2.53;;
80183;SDS011;69682;52.138;5.440;2024-02-16T08:54:30;4.97;;;2.67;;
80183;SDS011;69682;52.138;5.440;2024-02-16T08:56:56;5.65;;;2.60;;
80183;SDS011;69682;52.138;5.440;2024-02-16T08:59:37;5.05;;;2.22;;
80183;SDS011;69682;52.138;5.440;2024-02-16T09:02:04;5.80;;;2.80;;
80183;SDS011;69682;52.138;5.440;2024-02-16T09:04:31;5.93;;;2.63;;
80183;SDS011;69682;52.138;5.440;2024-02-16T09:06:59;6.07;;;2.72;;
80183;SDS011;69682;52.138;5.440;2024-02-16T09:09:26;6.30;;;2.88;;
80183;SDS011;69682;52.138;5.440;2024-02-16T09:11:52;3.13;;;2.35;;
80183;SDS011;69682;52.138;5.440;2024-02-16T09:14:19;5.65;;;2.45;;
80183;SDS011;69682;52.138;5.440;2024-02-16T09:16:48;6.03;;;3.15;;
80183;SDS011;69682;52.138;5.440;2024-02-16T09:19:17;4.95;;;3.00;;
80183;SDS011;69682;52.138;5.440;2024-02-16T09:21:46;6.03;;;2.88;;
80183;SDS011;69682;52.138;5.440;2024-02-16T09:24:12;5.63;;;2.85;;
80183;SDS011;69682;52.138;5.440;2024-02-16T09:26:48;5.32;;;3.00;;
80183;SDS011;69682;52.138;5.440;2024-02-16T09:29:15;7.30;;;3.25;;
80183;SDS011;69682;52.138;5.440;2024-02-16T09:31:41;5.07;;;2.40;;
80183;SDS011;69682;52.138;5.440;2024-02-16T09:34:22;4.00;;;2.63;;
80183;SDS011;69682;52.138;5.440;2024-02-16T09:36:49;8.07;;;3.38;;
80183;SDS011;69682;52.138;5.440;2024-02-16T09:39:16;3.85;;;2.28;;
80183;SDS011;69682;52.138;5.440;2024-02-16T09:41:42;5.97;;;3.20;;
80183;SDS011;69682;52.138;5.440;2024-02-16T09:44:12;6.28;;;3.40;;
80183;SDS011;69682;52.138;5.440;2024-02-16T09:46:39;6.15;;;3.53;;
80183;SDS011;69682;52.138;5.440;2024-02-16T09:49:05;5.13;;;3.05;;
80183;SDS011;69682;52.138;5.440;2024-02-16T09:51:35;6.13;;;3.35;;
80183;SDS011;69682;52.138;5.440;2024-02-16T09:54:03;3.90;;;2.65;;
80183;SDS011;69682;52.138;5.440;2024-02-16T09:56:30;4.68;;;2.80;;
80183;SDS011;69682;52.138;5.440;2024-02-16T09:58:57;8.40;;;3.25;;
80183;SDS011;69682;52.138;5.440;2024-02-16T10:01:23;6.60;;;3.28;;
80183;SDS011;69682;52.138;5.440;2024-02-16T10:03:50;6.72;;;3.20;;
80183;SDS011;69682;52.138;5.440;2024-02-16T10:06:17;5.72;;;3.50;;
80183;SDS011;69682;52.138;5.440;2024-02-16T10:08:47;4.85;;;3.00;;
80183;SDS011;69682;52.138;5.440;2024-02-16T10:11:19;6.82;;;3.55;;
80183;SDS011;69682;52.138;5.440;2024-02-16T10:13:54;4.70;;;3.03;;
80183;SDS011;69682;52.138;5.440;2024-02-16T10:18:49;5.25;;;3.10;;
80183;SDS011;69682;52.138;5.440;2024-02-16T10:21:28;4.22;;;2.83;;
80183;SDS011;69682;52.138;5.440;2024-02-16T10:24:05;7.70;;;3.72;;
80183;SDS011;69682;52.138;5.440;2024-02-16T10:26:37;6.30;;;3.45;;
80183;SDS011;69682;52.138;5.440;2024-02-16T10:29:05;4.63;;;3.63;;
80183;SDS011;69682;52.138;5.440;2024-02-16T10:31:34;4.80;;;2.50;;
80183;SDS011;69682;52.138;5.440;2024-02-16T10:34:02;8.43;;;4.47;;
80183;SDS011;69682;52.138;5.440;2024-02-16T10:36:33;9.23;;;4.95;;
80183;SDS011;69682;52.138;5.440;2024-02-16T10:41:39;6.57;;;3.28;;
80183;SDS011;69682;52.138;5.440;2024-02-16T10:44:07;6.57;;;3.33;;
80183;SDS011;69682;52.138;5.440;2024-02-16T10:46:34;8.73;;;3.90;;
80183;SDS011;69682;52.138;5.440;2024-02-16T10:49:01;6.35;;;3.78;;
80183;SDS011;69682;52.138;5.440;2024-02-16T10:51:43;7.68;;;4.07;;
80183;SDS011;69682;52.138;5.440;2024-02-16T10:54:15;8.88;;;3.60;;
80183;SDS011;69682;52.138;5.440;2024-02-16T10:57:08;9.15;;;5.10;;
80183;SDS011;69682;52.138;5.440;2024-02-16T10:59:42;7.68;;;3.90;;
80183;SDS011;69682;52.138;5.440;2024-02-16T11:02:10;6.68;;;4.00;;
80183;SDS011;69682;52.138;5.440;2024-02-16T11:04:37;9.20;;;4.60;;
80183;SDS011;69682;52.138;5.440;2024-02-16T11:07:12;7.13;;;4.50;;
80183;SDS011;69682;52.138;5.440;2024-02-16T11:09:42;5.75;;;4.50;;
80183;SDS011;69682;52.138;5.440;2024-02-16T11:19:37;8.13;;;4.82;;
80183;SDS011;69682;52.138;5.440;2024-02-16T11:22:07;8.13;;;5.07;;
80183;SDS011;69682;52.138;5.440;2024-02-16T11:24:35;7.20;;;4.72;;
80183;SDS011;69682;52.138;5.440;2024-02-16T11:27:03;9.48;;;5.25;;
80183;SDS011;69682;52.138;5.440;2024-02-16T11:29:35;9.68;;;5.15;;
80183;SDS011;69682;52.138;5.440;2024-02-16T11:32:02;7.35;;;4.80;;
80183;SDS011;69682;52.138;5.440;2024-02-16T11:34:30;12.75;;;6.03;;
80183;SDS011;69682;52.138;5.440;2024-02-16T11:37:01;10.82;;;5.03;;
80183;SDS011;69682;52.138;5.440;2024-02-16T11:42:08;6.07;;;4.22;;
80183;SDS011;69682;52.138;5.440;2024-02-16T11:44:40;8.90;;;4.72;;
80183;SDS011;69682;52.138;5.440;2024-02-16T11:47:19;9.63;;;5.70;;
80183;SDS011;69682;52.138;5.440;2024-02-16T11:50:05;8.15;;;4.95;;
80183;SDS011;69682;52.138;5.440;2024-02-16T11:52:33;9.05;;;5.05;;
80183;SDS011;69682;52.138;5.440;2024-02-16T11:55:01;6.43;;;4.57;;
80183;SDS011;69682;52.138;5.440;2024-02-16T11:57:31;8.27;;;5.00;;
80183;SDS011;69682;52.138;5.440;2024-02-16T12:00:00;8.30;;;5.60;;
80183;SDS011;69682;52.138;5.440;2024-02-16T12:02:31;7.15;;;4.72;;
80183;SDS011;69682;52.138;5.440;2024-02-16T12:05:00;12.85;;;6.22;;
80183;SDS011;69682;52.138;5.440;2024-02-16T12:07:30;8.82;;;6.75;;
80183;SDS011;69682;52.138;5.440;2024-02-16T12:09:58;7.63;;;5.25;;
80183;SDS011;69682;52.138;5.440;2024-02-16T12:12:26;7.82;;;5.28;;
80183;SDS011;69682;52.138;5.440;2024-02-16T12:14:58;8.00;;;5.65;;
80183;SDS011;69682;52.138;5.440;2024-02-16T12:19:51;7.25;;;4.65;;
80183;SDS011;69682;52.138;5.440;2024-02-16T12:22:21;8.23;;;4.78;;
80183;SDS011;69682;52.138;5.440;2024-02-16T12:24:48;6.32;;;4.43;;
80183;SDS011;69682;52.138;5.440;2024-02-16T12:27:16;4.40;;;3.25;;
80183;SDS011;69682;52.138;5.440;2024-02-16T12:29:43;7.95;;;4.13;;
80183;SDS011;69682;52.138;5.440;2024-02-16T12:32:10;7.90;;;4.15;;
80183;SDS011;69682;52.138;5.440;2024-02-16T12:34:37;9.57;;;4.07;;
80183;SDS011;69682;52.138;5.440;2024-02-16T12:37:05;7.35;;;4.50;;
80183;SDS011;69682;52.138;5.440;2024-02-16T12:39:36;6.40;;;3.90;;
80183;SDS011;69682;52.138;5.440;2024-02-16T12:42:03;4.63;;;2.90;;
80183;SDS011;69682;52.138;5.440;2024-02-16T12:44:30;4.85;;;2.33;;
80183;SDS011;69682;52.138;5.440;2024-02-16T12:46:59;4.25;;;2.55;;
80183;SDS011;69682;52.138;5.440;2024-02-16T12:49:25;2.88;;;2.22;;
80183;SDS011;69682;52.138;5.440;2024-02-16T12:51:52;5.18;;;2.53;;
80183;SDS011;69682;52.138;5.440;2024-02-16T12:54:19;2.78;;;2.05;;
80183;SDS011;69682;52.138;5.440;2024-02-16T12:56:46;2.97;;;2.13;;
80183;SDS011;69682;52.138;5.440;2024-02-16T12:59:12;3.28;;;2.08;;
80183;SDS011;69682;52.138;5.440;2024-02-16T13:01:39;4.53;;;1.80;;
80183;SDS011;69682;52.138;5.440;2024-02-16T13:04:08;2.17;;;1.98;;
80183;SDS011;69682;52.138;5.440;2024-02-16T13:06:35;3.33;;;1.40;;
80183;SDS011;69682;52.138;5.440;2024-02-16T13:09:02;3.55;;;2.58;;
80183;SDS011;69682;52.138;5.440;2024-02-16T13:11:29;1.98;;;1.42;;
80183;SDS011;69682;52.138;5.440;2024-02-16T13:13:55;4.47;;;2.00;;
80183;SDS011;69682;52.138;5.440;2024-02-16T13:16:22;2.55;;;1.60;;
80183;SDS011;69682;52.138;5.440;2024-02-16T13:18:49;2.60;;;1.70;;
80183;SDS011;69682;52.138;5.440;2024-02-16T13:21:16;3.35;;;1.98;;
80183;SDS011;69682;52.138;5.440;2024-02-16T13:23:42;2.88;;;1.85;;
80183;SDS011;69682;52.138;5.440;2024-02-16T13:26:09;3.70;;;1.95;;
80183;SDS011;69682;52.138;5.440;2024-02-16T13:28:35;4.03;;;1.52;;
80183;SDS011;69682;52.138;5.440;2024-02-16T13:31:02;3.55;;;2.00;;
80183;SDS011;69682;52.138;5.440;2024-02-16T13:33:29;2.50;;;1.85;;
80183;SDS011;69682;52.138;5.440;2024-02-16T13:35:56;3.83;;;2.25;;
80183;SDS011;69682;52.138;5.440;2024-02-16T13:38:23;1.80;;;1.38;;
80183;SDS011;69682;52.138;5.440;2024-02-16T13:40:49;3.50;;;2.03;;
80183;SDS011;69682;52.138;5.440;2024-02-16T13:43:16;2.60;;;1.98;;
80183;SDS011;69682;52.138;5.440;2024-02-16T13:45:50;4.78;;;1.52;;
80183;SDS011;69682;52.138;5.440;2024-02-16T13:48:21;3.03;;;2.00;;
80183;SDS011;69682;52.138;5.440;2024-02-16T13:50:48;2.17;;;1.52;;
80183;SDS011;69682;52.138;5.440;2024-02-16T13:53:16;3.50;;;2.00;;
80183;SDS011;69682;52.138;5.440;2024-02-16T13:55:55;2.83;;;2.15;;
80183;SDS011;69682;52.138;5.440;2024-02-16T13:58:22;3.65;;;1.85;;
80183;SDS011;69682;52.138;5.440;2024-02-16T14:00:48;1.90;;;1.38;;
80183;SDS011;69682;52.138;5.440;2024-02-16T14:03:16;2.88;;;1.70;;
80183;SDS011;69682;52.138;5.440;2024-02-16T14:05:44;4.63;;;1.63;;
80183;SDS011;69682;52.138;5.440;2024-02-16T14:08:11;2.00;;;1.60;;
80183;SDS011;69682;52.138;5.440;2024-02-16T14:10:39;3.13;;;1.73;;
80183;SDS011;69682;52.138;5.440;2024-02-16T14:13:06;5.25;;;1.70;;
80183;SDS011;69682;52.138;5.440;2024-02-16T14:15:32;2.72;;;1.52;;
80183;SDS011;69682;52.138;5.440;2024-02-16T14:17:59;2.03;;;1.50;;
80183;SDS011;69682;52.138;5.440;2024-02-16T14:20:36;2.55;;;2.20;;
80183;SDS011;69682;52.138;5.440;2024-02-16T14:23:03;2.92;;;1.52;;
80183;SDS011;69682;52.138;5.440;2024-02-16T14:25:30;2.60;;;1.80;;
80183;SDS011;69682;52.138;5.440;2024-02-16T14:27:56;4.03;;;1.75;;
80183;SDS011;69682;52.138;5.440;2024-02-16T14:30:24;3.63;;;2.00;;
80183;SDS011;69682;52.138;5.440;2024-02-16T14:32:51;3.38;;;2.30;;
80183;SDS011;69682;52.138;5.440;2024-02-16T14:35:20;3.67;;;1.95;;
80183;SDS011;69682;52.138;5.440;2024-02-16T14:37:48;2.83;;;1.80;;
80183;SDS011;69682;52.138;5.440;2024-02-16T14:40:16;3.22;;;1.90;;
80183;SDS011;69682;52.138;5.440;2024-02-16T14:42:42;3.42;;;2.22;;
80183;SDS011;69682;52.138;5.440;2024-02-16T14:45:09;4.28;;;2.67;;
80183;SDS011;69682;52.138;5.440;2024-02-16T14:47:49;3.90;;;2.70;;
80183;SDS011;69682;52.138;5.440;2024-02-16T14:50:16;3.13;;;2.35;;
80183;SDS011;69682;52.138;5.440;2024-02-16T14:52:43;4.65;;;2.42;;
80183;SDS011;69682;52.138;5.440;2024-02-16T14:55:11;5.68;;;2.45;;
80183;SDS011;69682;52.138;5.440;2024-02-16T14:57:41;4.70;;;2.30;;
80183;SDS011;69682;52.138;5.440;2024-02-16T15:00:10;3.05;;;1.70;;
80183;SDS011;69682;52.138;5.440;2024-02-16T15:02:38;3.83;;;1.80;;
80183;SDS011;69682;52.138;5.440;2024-02-16T15:05:05;3.97;;;1.80;;
80183;SDS011;69682;52.138;5.440;2024-02-16T15:07:33;3.33;;;2.42;;
80183;SDS011;69682;52.138;5.440;2024-02-16T15:09:59;5.00;;;2.40;;
80183;SDS011;69682;52.138;5.440;2024-02-16T15:12:26;5.43;;;2.75;;
80183;SDS011;69682;52.138;5.440;2024-02-16T15:14:54;4.22;;;2.58;;
80183;SDS011;69682;52.138;5.440;2024-02-16T15:17:21;3.15;;;2.38;;
80183;SDS011;69682;52.138;5.440;2024-02-16T15:19:48;4.78;;;2.95;;